createdAt,value
2022-11-02T00:01:18.724Z,14.87
2022-11-02T00:04:02.749Z,15.70
2022-11-02T00:06:46.832Z,15.40
2022-11-02T00:09:30.762Z,14.40
2022-11-02T00:12:14.751Z,13.93
2022-11-02T00:14:58.863Z,13.87
2022-11-02T00:17:46.581Z,15.53
2022-11-02T00:20:30.760Z,14.07
2022-11-02T00:23:16.530Z,14.57
2022-11-02T00:26:02.816Z,13.87
2022-11-02T00:28:47.120Z,13.23
2022-11-02T00:31:31.246Z,12.73
2022-11-02T00:34:16.781Z,11.90
2022-11-02T00:37:00.833Z,12.13
2022-11-02T00:39:44.829Z,11.80
2022-11-02T00:42:28.793Z,11.97
2022-11-02T00:45:14.812Z,12.80
2022-11-02T00:47:59.297Z,12.60
2022-11-02T00:50:47.487Z,12.50
2022-11-02T00:53:31.910Z,12.23
2022-11-02T00:56:16.692Z,11.97
2022-11-02T00:59:00.935Z,12.03
2022-11-02T01:01:47.599Z,11.50
2022-11-02T01:04:31.662Z,11.53
2022-11-02T01:07:17.118Z,11.30
2022-11-02T01:10:01.301Z,11.57
2022-11-02T01:12:46.904Z,11.97
2022-11-02T01:15:30.928Z,11.73
2022-11-02T01:18:15.642Z,11.00
2022-11-02T01:21:00.352Z,12.63
2022-11-02T01:23:45.898Z,11.30
2022-11-02T01:26:29.923Z,12.20
2022-11-02T01:29:13.898Z,11.03
2022-11-02T01:31:57.825Z,11.37
2022-11-02T01:34:41.839Z,11.20
2022-11-02T01:37:25.811Z,11.17
2022-11-02T01:40:12.631Z,10.73
2022-11-02T01:42:56.614Z,10.27
2022-11-02T01:45:40.724Z,11.30
2022-11-02T01:48:32.392Z,11.33
2022-11-02T01:51:20.727Z,10.43
2022-11-02T01:54:09.481Z,11.33
2022-11-02T01:57:06.353Z,10.70
2022-11-02T01:59:56.667Z,10.80
2022-11-02T02:02:46.624Z,11.00
2022-11-02T02:05:32.411Z,10.67
2022-11-02T02:08:19.888Z,11.60
2022-11-02T02:11:03.808Z,11.23
2022-11-02T02:13:49.654Z,12.00
2022-11-02T02:17:15.750Z,12.87
2022-11-02T02:20:04.243Z,12.37
2022-11-02T02:23:14.866Z,13.60
2022-11-02T02:26:24.959Z,13.97
2022-11-02T02:29:12.764Z,15.53
2022-11-02T02:32:03.908Z,16.27
2022-11-02T02:34:55.172Z,15.63
2022-11-02T02:37:44.759Z,17.00
2022-11-02T02:40:34.955Z,16.17
2022-11-02T02:43:23.315Z,15.63
2022-11-02T02:46:11.703Z,14.93
2022-11-02T02:48:59.379Z,16.27
2022-11-02T02:51:45.918Z,16.00
2022-11-02T02:54:34.214Z,18.07
2022-11-02T02:57:22.193Z,17.87
2022-11-02T03:00:14.098Z,17.17
2022-11-02T03:03:04.581Z,18.73
2022-11-02T03:06:04.490Z,18.40
2022-11-02T03:09:00.006Z,21.70
2022-11-02T03:11:52.785Z,19.97
2022-11-02T03:14:44.783Z,21.60
2022-11-02T03:17:40.534Z,21.37
2022-11-02T03:20:32.127Z,23.37
2022-11-02T03:23:22.112Z,21.50
2022-11-02T03:26:13.907Z,20.33
2022-11-02T03:29:07.278Z,20.23
2022-11-02T03:31:57.853Z,19.67
2022-11-02T03:34:44.395Z,19.07
2022-11-02T03:37:33.322Z,17.63
2022-11-02T03:40:21.864Z,17.73
2022-11-02T03:43:08.580Z,16.43
2022-11-02T03:45:57.326Z,16.97
2022-11-02T03:48:46.633Z,15.63
2022-11-02T03:51:34.422Z,17.43
2022-11-02T03:54:27.699Z,15.90
2022-11-02T03:57:16.772Z,15.57
2022-11-02T04:00:09.410Z,15.53
2022-11-02T04:03:00.665Z,15.37
2022-11-02T04:05:47.042Z,13.93
2022-11-02T04:08:41.788Z,14.57
2022-11-02T04:11:46.831Z,13.53
2022-11-02T04:14:41.511Z,13.83
2022-11-02T04:17:47.761Z,13.50
2022-11-02T04:20:33.734Z,14.57
2022-11-02T04:23:35.263Z,13.33
2022-11-02T04:26:19.697Z,13.83
2022-11-02T04:29:05.121Z,14.57
2022-11-02T04:31:48.932Z,14.70
2022-11-02T04:34:31.853Z,14.33
2022-11-02T04:40:18.054Z,13.53
2022-11-02T04:43:02.257Z,14.47
2022-11-02T04:45:47.436Z,14.03
2022-11-02T04:48:31.282Z,14.37
2022-11-02T04:51:15.814Z,14.77
2022-11-02T04:54:00.774Z,14.07
2022-11-02T04:56:45.939Z,16.23
2022-11-02T04:59:30.900Z,17.63
2022-11-02T05:02:17.360Z,16.30
2022-11-02T05:05:01.848Z,16.57
2022-11-02T05:07:46.802Z,15.93
2022-11-02T05:10:31.485Z,13.90
2022-11-02T05:13:15.578Z,12.30
2022-11-02T05:16:00.671Z,13.17
2022-11-02T05:18:47.769Z,14.13
2022-11-02T05:21:33.393Z,15.00
2022-11-02T05:24:17.641Z,15.23
2022-11-02T05:27:02.305Z,16.17
2022-11-02T05:29:49.906Z,15.07
2022-11-02T05:32:34.820Z,13.53
2022-11-02T05:35:21.289Z,16.90
2022-11-02T05:38:05.222Z,17.50
2022-11-02T05:40:53.713Z,18.67
2022-11-02T05:43:38.660Z,17.20
2022-11-02T05:46:25.036Z,19.27
2022-11-02T05:49:09.114Z,16.80
2022-11-02T05:51:54.507Z,16.40
2022-11-02T05:54:38.487Z,16.93
2022-11-02T05:57:22.559Z,17.17
2022-11-02T06:00:07.947Z,18.73
2022-11-02T06:02:59.910Z,20.30
2022-11-02T06:05:43.908Z,20.17
2022-11-02T06:08:29.934Z,19.67
2022-11-02T06:11:14.872Z,22.53
2022-11-02T06:13:58.845Z,19.97
2022-11-02T06:16:42.948Z,22.17
2022-11-02T06:19:26.863Z,22.33
2022-11-02T06:22:10.788Z,23.13
2022-11-02T06:24:56.250Z,22.07
2022-11-02T06:27:45.762Z,23.07
2022-11-02T06:30:30.774Z,21.17
2022-11-02T06:33:14.892Z,23.20
2022-11-02T06:35:59.251Z,23.97
2022-11-02T06:38:44.300Z,23.67
2022-11-02T06:41:29.753Z,21.77
2022-11-02T06:44:13.693Z,22.67
2022-11-02T06:46:57.656Z,21.43
2022-11-02T06:49:41.546Z,21.37
2022-11-02T06:52:25.461Z,22.83
2022-11-02T06:55:10.585Z,26.00
2022-11-02T06:57:57.445Z,28.13
2022-11-02T07:00:41.348Z,23.83
2022-11-02T07:03:25.541Z,21.80
2022-11-02T07:06:14.101Z,20.90
2022-11-02T07:08:58.525Z,19.30
2022-11-02T07:11:42.512Z,21.37
2022-11-02T07:14:27.998Z,21.17
2022-11-02T07:17:11.933Z,21.43
2022-11-02T07:19:56.036Z,21.63
2022-11-02T07:22:39.975Z,21.07
2022-11-02T08:09:11.107Z,17.42
2022-11-02T08:11:57.825Z,16.77
2022-11-02T08:14:42.962Z,16.90
2022-11-02T08:17:26.988Z,16.63
2022-11-02T08:20:12.091Z,16.50
2022-11-02T08:22:56.007Z,16.83
2022-11-02T08:25:41.830Z,15.93
2022-11-02T08:28:27.833Z,16.17
2022-11-02T08:31:16.345Z,16.00
2022-11-02T08:34:00.327Z,15.40
2022-11-02T08:36:46.749Z,16.27
2022-11-02T08:39:30.775Z,15.37
2022-11-02T08:42:16.233Z,16.33
2022-11-02T08:45:00.154Z,16.47
2022-11-02T08:47:44.428Z,16.80
2022-11-02T08:50:28.627Z,15.52
2022-11-02T08:53:12.609Z,16.42
2022-11-02T08:55:58.587Z,15.97
2022-11-02T08:58:43.892Z,12.43
2022-11-02T09:01:27.851Z,14.00
2022-11-02T09:04:11.826Z,15.05
2022-11-02T09:06:55.966Z,16.38
2022-11-02T09:09:39.991Z,17.00
2022-11-02T09:12:24.029Z,16.70
2022-11-02T09:15:10.608Z,16.73
2022-11-02T09:17:54.801Z,17.55
2022-11-02T09:20:38.920Z,16.25
2022-11-02T09:23:23.636Z,17.98
2022-11-02T09:26:07.939Z,17.67
2022-11-02T09:28:52.027Z,17.48
2022-11-02T09:31:37.510Z,17.63
2022-11-02T09:34:21.513Z,18.98
2022-11-02T09:37:05.438Z,18.88
2022-11-02T09:39:49.486Z,18.27
2022-11-02T09:42:43.346Z,19.77
2022-11-02T09:45:29.038Z,19.20
2022-11-02T09:48:24.814Z,19.48
2022-11-02T09:51:15.884Z,18.65
2022-11-02T09:54:09.426Z,17.73
2022-11-02T09:57:02.001Z,17.27
2022-11-02T09:59:45.944Z,16.58
2022-11-02T10:02:48.973Z,17.15
2022-11-02T10:05:43.152Z,17.25
2022-11-02T10:08:39.927Z,15.18
2022-11-02T10:11:34.711Z,14.15
2022-11-02T10:14:24.083Z,12.55
2022-11-02T10:17:15.750Z,14.18
2022-11-02T10:20:06.936Z,13.93
2022-11-02T10:22:53.047Z,12.27
2022-11-02T10:25:38.754Z,11.27
2022-11-02T10:28:27.137Z,10.70
2022-11-02T10:31:24.792Z,11.93
2022-11-02T10:34:20.915Z,11.45
2022-11-02T10:37:23.684Z,10.63
2022-11-02T10:40:21.647Z,9.30
2022-11-02T10:43:16.948Z,7.50
2022-11-02T10:46:16.752Z,7.50
2022-11-02T10:49:10.556Z,7.28
2022-11-02T10:51:54.404Z,7.57
2022-11-02T10:54:38.842Z,5.90
2022-11-02T10:57:26.386Z,6.28
2022-11-02T11:00:24.615Z,7.10
2022-11-02T11:03:11.402Z,6.90
2022-11-02T11:06:00.667Z,5.82
2022-11-02T11:08:47.097Z,7.10
2022-11-02T11:11:34.714Z,6.60
2022-11-02T11:20:37.075Z,6.78
2022-11-02T11:23:23.561Z,6.50
2022-11-02T11:26:13.402Z,6.55
2022-11-02T11:28:58.416Z,6.50
2022-11-02T11:31:43.971Z,6.57
2022-11-02T11:34:31.725Z,6.72
2022-11-02T11:37:18.065Z,5.30
2022-11-02T11:40:04.331Z,5.45
2022-11-02T11:42:51.821Z,5.47
2022-11-02T11:45:35.977Z,5.18
2022-11-02T11:48:29.046Z,5.22
2022-11-02T11:51:27.895Z,5.72
2022-11-02T11:54:25.486Z,5.70
2022-11-02T11:57:25.404Z,5.75
2022-11-02T12:00:28.033Z,5.50
2022-11-02T12:03:13.778Z,6.63
2022-11-02T12:06:10.146Z,5.45
2022-11-02T12:09:05.248Z,5.70
2022-11-02T12:11:58.523Z,5.30
2022-11-02T12:14:53.998Z,5.93
2022-11-02T12:17:51.213Z,5.70
2022-11-02T12:20:51.498Z,6.38
2022-11-02T12:53:38.773Z,5.07
2022-11-02T12:56:26.162Z,4.05
2022-11-02T12:59:17.947Z,4.63
2022-11-02T13:02:08.145Z,5.00
2022-11-02T13:04:57.256Z,5.00
2022-11-02T13:07:45.249Z,4.70
2022-11-02T13:10:36.107Z,4.90
2022-11-02T13:13:26.209Z,4.75
2022-11-02T13:16:12.241Z,4.78
2022-11-02T13:18:58.260Z,4.13
2022-11-02T13:21:47.364Z,4.90
2022-11-02T13:24:34.971Z,5.57
2022-11-02T13:27:37.522Z,4.60
2022-11-02T13:30:22.503Z,5.00
2022-11-02T13:33:15.233Z,4.93
2022-11-02T13:35:59.091Z,4.30
2022-11-02T13:38:48.293Z,5.07
2022-11-02T13:41:50.924Z,4.72
2022-11-02T13:45:11.313Z,4.95
2022-11-02T13:48:30.622Z,4.72
2022-11-02T13:51:24.807Z,4.95
2022-11-02T13:54:16.181Z,5.65
2022-11-02T13:57:00.699Z,5.20
2022-11-02T13:59:46.424Z,5.15
2022-11-02T14:02:38.353Z,6.80
2022-11-02T14:05:29.138Z,5.07
2022-11-02T14:08:22.603Z,5.60
2022-11-02T14:11:23.108Z,4.93
2022-11-02T14:14:25.802Z,5.40
2022-11-02T14:17:15.044Z,4.93
2022-11-02T14:20:04.940Z,5.53
2022-11-02T14:23:35.106Z,5.53
2022-11-02T14:26:34.133Z,5.13
2022-11-02T14:29:49.384Z,5.55
2022-11-02T14:32:49.844Z,5.85
2022-11-02T14:35:47.253Z,5.72
2022-11-02T14:38:53.904Z,5.82
2022-11-02T14:42:09.157Z,5.22
2022-11-02T14:45:11.317Z,5.43
2022-11-02T14:48:00.248Z,5.85
2022-11-02T14:50:59.353Z,5.63
2022-11-02T14:53:44.067Z,6.50
2022-11-02T14:56:50.236Z,6.88
2022-11-02T14:59:42.138Z,6.03
2022-11-02T15:02:31.370Z,6.53
2022-11-02T15:05:25.768Z,6.05
2022-11-02T15:08:25.003Z,5.57
2022-11-02T15:11:48.333Z,6.25
2022-11-02T15:15:03.257Z,7.45
2022-11-02T15:18:22.732Z,7.00
2022-11-02T15:21:25.762Z,6.40
2022-11-02T15:24:17.653Z,6.55
2022-11-02T15:27:02.857Z,6.38
2022-11-02T15:29:47.619Z,6.93
2022-11-02T15:32:34.298Z,6.63
2022-11-02T15:35:22.350Z,6.43
2022-11-02T15:38:17.382Z,6.95
2022-11-02T15:41:21.125Z,7.45
2022-11-02T15:44:23.304Z,7.45
2022-11-02T15:47:18.798Z,6.85
2022-11-02T15:50:16.244Z,7.55
2022-11-02T15:53:24.820Z,7.45
2022-11-02T15:56:26.698Z,7.95
2022-11-02T15:59:31.325Z,7.20
2022-11-02T16:02:37.575Z,8.48
2022-11-02T16:05:23.943Z,9.43
2022-11-02T16:08:23.670Z,10.95
2022-11-02T16:11:17.453Z,8.65
2022-11-02T16:14:18.009Z,8.88
2022-11-02T16:17:02.131Z,7.95
2022-11-02T16:19:46.039Z,8.18
2022-11-02T16:22:30.703Z,8.18
2022-11-02T16:25:20.891Z,8.27
2022-11-02T16:28:18.122Z,7.95
2022-11-02T16:31:17.390Z,7.75
2022-11-02T16:34:04.262Z,8.23
2022-11-02T16:36:48.887Z,7.85
2022-11-02T16:39:37.665Z,9.07
2022-11-02T16:42:25.057Z,8.00
2022-11-02T16:45:35.902Z,7.97
2022-11-02T16:48:27.482Z,8.50
2022-11-02T16:51:20.019Z,8.50
2022-11-02T16:54:27.970Z,8.65
2022-11-02T16:57:19.630Z,8.90
2022-11-02T17:00:08.049Z,9.25
2022-11-02T17:02:53.566Z,9.80
2022-11-02T17:05:42.632Z,13.10
2022-11-02T17:08:32.037Z,12.40
2022-11-02T17:11:18.295Z,11.25
2022-11-02T17:14:02.320Z,11.68
2022-11-02T17:16:59.620Z,11.32
2022-11-02T17:19:54.610Z,11.55
2022-11-02T17:22:40.529Z,12.05
2022-11-02T17:25:26.661Z,12.73
2022-11-02T17:28:42.559Z,12.10
2022-11-02T17:31:29.478Z,12.30
2022-11-02T17:34:20.504Z,12.27
2022-11-02T17:37:07.952Z,13.18
2022-11-02T17:39:52.460Z,13.13
2022-11-02T17:42:54.553Z,13.25
2022-11-02T17:45:39.603Z,12.63
2022-11-02T17:48:24.680Z,13.23
2022-11-02T17:51:12.156Z,11.98
2022-11-02T17:53:57.602Z,12.10
2022-11-02T17:56:41.732Z,12.45
2022-11-02T17:59:25.683Z,11.85
2022-11-02T18:02:14.211Z,11.85
2022-11-02T18:04:58.334Z,13.13
2022-11-02T18:07:42.412Z,12.93
2022-11-02T18:10:31.667Z,15.65
2022-11-02T18:13:17.440Z,14.77
2022-11-02T18:16:01.552Z,16.20
2022-11-02T18:18:45.576Z,18.10
2022-11-02T18:21:29.511Z,18.63
2022-11-02T18:24:13.474Z,18.40
2022-11-02T18:26:58.877Z,16.37
2022-11-02T18:29:42.873Z,16.20
2022-11-02T18:32:26.843Z,17.53
2022-11-02T18:35:13.195Z,15.20
2022-11-02T18:37:57.292Z,17.00
2022-11-02T18:40:41.347Z,16.73
2022-11-02T18:43:26.964Z,16.57
2022-11-02T18:46:10.952Z,16.53
2022-11-02T18:48:55.441Z,14.90
2022-11-02T18:51:43.216Z,13.07
2022-11-02T18:54:27.351Z,13.80
2022-11-02T19:00:12.469Z,14.53
2022-11-02T19:02:56.660Z,13.97
2022-11-02T19:08:59.829Z,13.17
2022-11-02T19:11:43.789Z,13.80
2022-11-02T19:14:28.745Z,13.70
2022-11-02T19:17:15.909Z,14.10
2022-11-02T19:19:59.908Z,13.97
2022-11-02T19:22:43.869Z,14.13
2022-11-02T19:25:27.840Z,14.83
2022-11-02T19:28:11.724Z,15.60
2022-11-02T19:30:55.603Z,14.90
2022-11-02T19:33:41.128Z,15.07
2022-11-02T19:36:25.394Z,14.13
2022-11-02T19:39:10.056Z,14.50
2022-11-02T19:41:54.583Z,13.93
2022-11-02T19:44:42.641Z,12.97
2022-11-02T19:47:27.869Z,14.43
2022-11-02T19:50:13.398Z,14.53
2022-11-02T19:52:57.362Z,13.82
2022-11-02T19:55:41.296Z,14.57
2022-11-02T19:58:25.157Z,14.33
2022-11-02T20:01:10.530Z,13.20
2022-11-02T20:03:55.197Z,12.37
2022-11-02T20:06:41.930Z,13.27
2022-11-02T20:09:25.957Z,12.77
2022-11-02T20:12:10.122Z,14.13
2022-11-02T20:14:54.273Z,13.43
2022-11-02T20:17:58.328Z,13.80
2022-11-02T20:20:42.432Z,14.80
2022-11-02T20:23:28.059Z,14.83
2022-11-02T20:26:15.070Z,15.50
2022-11-02T20:29:00.457Z,16.00
2022-11-02T20:31:44.802Z,16.23
2022-11-02T20:34:29.102Z,17.47
2022-11-02T20:37:13.222Z,15.73
2022-11-02T20:39:59.571Z,14.07
2022-11-02T20:42:43.604Z,12.57
2022-11-02T20:45:28.619Z,12.37
2022-11-02T20:48:12.949Z,13.07
2022-11-02T20:50:57.079Z,13.53
2022-11-02T20:53:41.250Z,13.37
2022-11-02T20:56:26.753Z,13.07
2022-11-02T20:59:10.741Z,13.53
2022-11-02T21:01:54.714Z,15.93
2022-11-02T21:04:38.667Z,14.87
2022-11-02T21:07:22.681Z,15.33
2022-11-02T21:10:07.900Z,15.23
2022-11-02T21:13:18.984Z,16.30
2022-11-02T21:16:04.239Z,15.23
2022-11-02T21:18:48.538Z,14.63
2022-11-02T21:21:32.408Z,14.13
2022-11-02T21:24:16.321Z,14.03
2022-11-02T21:27:00.232Z,14.87
2022-11-02T21:29:45.628Z,15.50
2022-11-02T21:32:29.615Z,13.67
2022-11-02T21:35:13.621Z,12.57
2022-11-02T21:38:01.332Z,13.00
2022-11-02T21:40:47.812Z,12.00
2022-11-02T21:43:32.844Z,12.67
2022-11-02T21:46:19.002Z,12.90
2022-11-02T21:49:03.107Z,12.30
2022-11-02T21:51:47.191Z,13.10
2022-11-02T21:54:31.129Z,12.87
2022-11-02T21:57:15.148Z,12.33
2022-11-02T21:59:59.275Z,12.60
2022-11-02T22:02:44.645Z,12.53
2022-11-02T22:05:42.462Z,13.47
2022-11-02T22:08:41.645Z,12.40
2022-11-02T22:11:28.429Z,12.87
2022-11-02T22:14:13.233Z,13.10
2022-11-02T22:16:57.213Z,12.00
2022-11-02T22:19:42.577Z,13.47
2022-11-02T22:22:27.826Z,12.87
2022-11-02T22:25:11.795Z,12.20
2022-11-02T22:27:55.895Z,12.47
2022-11-02T22:30:39.891Z,11.87
2022-11-02T22:33:23.813Z,11.60
2022-11-02T22:36:11.790Z,12.67
2022-11-02T22:38:56.088Z,12.83
2022-11-02T22:41:41.551Z,12.77
2022-11-02T22:44:25.625Z,11.50
2022-11-02T22:47:09.628Z,12.23
2022-11-02T22:49:53.564Z,11.83
2022-11-02T22:52:39.022Z,12.10
2022-11-02T22:55:23.121Z,12.43
2022-11-02T22:58:07.192Z,12.50
2022-11-02T23:00:51.199Z,12.27
2022-11-02T23:03:36.308Z,11.90
2022-11-02T23:06:22.486Z,12.13
2022-11-02T23:09:08.599Z,12.13
2022-11-02T23:11:52.629Z,12.13
2022-11-02T23:14:36.571Z,13.87
2022-11-02T23:17:20.513Z,13.27
2022-11-02T23:20:03.738Z,13.43
2022-11-02T23:23:05.508Z,11.83
2022-11-02T23:25:57.586Z,13.37
2022-11-02T23:28:58.946Z,12.93
2022-11-02T23:32:00.632Z,12.47
2022-11-02T23:35:05.179Z,11.73
2022-11-02T23:37:47.956Z,12.23
2022-11-02T23:40:32.438Z,12.50
2022-11-02T23:43:17.903Z,12.17
2022-11-02T23:46:01.918Z,11.53
2022-11-02T23:48:49.644Z,11.67
2022-11-02T23:51:53.783Z,11.47
2022-11-02T23:55:06.872Z,12.10
2022-11-02T23:57:50.766Z,10.30
